• Join FlightAware (Why Join?)
  • Login
  • US Flag 
07:14AM EST


 

Airport Tracker/Info


-or-


 

Live Flight TrackerFlight Track Log ✈ N522AE ✈ 08-May-2012 ✈ KORD - KATL

Flight Track Log - Related Links

Times and Time Zones

All times are in EDT time to prevent confusion due to time zone crossing. See the N522AE flight status page for this flight to view local times or setup timezone preferences in your user account.

Time Position Orientation Groundspeed Altitude Reporting Facility
EDT Latitude Longitude Course Direction KTS MPH feet Rate Location/Type
06:30PM 41.9227 -87.9000 180° South  Level FlightAware Approximate
06:31PM 41.9167 -87.9000 177° South 192 221 2,500  Level Chicago TRACON
06:36PM 41.5633 -87.8736 181° South 297 342 12,800 2,160 Climbing Chicago Center
06:37PM 41.4467 -87.8761 173° South 329 379 15,300 2,040 Climbing Chicago Center
06:38PM 41.3589 -87.8617 168° South 344 396 16,900 1,800 Climbing Chicago Center
06:39PM 41.2564 -87.8336 170° South 365 420 18,900 1,680 Climbing Chicago Center
06:40PM 41.1519 -87.8083 169° South 376 433 20,300 1,260 Climbing Chicago Center
06:41PM 41.0639 -87.7856 170° South 382 440 21,500 1,440 Climbing Chicago Center
06:42PM 40.9364 -87.7558 169° South 393 452 23,200 1,500 Climbing Chicago Center
06:43PM 40.8256 -87.7283 170° South 393 452 24,600 1,380 Climbing Chicago Center
06:44PM 40.7167 -87.7036 170° South 393 452 26,000 1,500 Climbing Chicago Center
06:45PM 40.5933 -87.6739 170° South 399 459 27,600 1,500 Climbing Chicago Center
06:46PM 40.4867 -87.6492 172° South 399 459 29,100 1,020 Climbing Chicago Center
06:47PM 40.3708 -87.6275 169° South 423 487 29,900 600 Climbing Indianapolis Center
06:48PM 40.2592 -87.5994 170° South 437 503 30,500 540 Climbing Indianapolis Center
06:49PM 40.1456 -87.5736 170° South 428 493 31,000 240 Climbing Indianapolis Center
06:50PM 40.0275 -87.5453 170° South 428 493 31,000  Level Indianapolis Center
06:51PM 39.8911 -87.5131 170° South 433 498 31,000  Level Indianapolis Center
06:52PM 39.7689 -87.4847 169° South 450 518 31,000  Level Indianapolis Center
06:53PM 39.6469 -87.4536 170° South 450 518 31,000  Level Indianapolis Center
06:54PM 39.5250 -87.4253 170° South 450 518 31,000  Level Indianapolis Center
06:55PM 39.4028 -87.3972 170° South 444 511 31,000  Level Indianapolis Center
06:56PM 39.2847 -87.3694 171° South 444 511 31,000  Level Indianapolis Center
06:57PM 39.1667 -87.3442 170° South 438 504 31,000  Level Indianapolis Center
06:58PM 39.0633 -87.3200 171° South 432 497 31,000  Level Indianapolis Center
06:59PM 38.9450 -87.2953 170° South 427 491 31,000  Level Indianapolis Center
07:00PM 38.8272 -87.2678 170° South 427 491 31,000 -300 Level Indianapolis Center
07:01PM 38.7069 -87.2403 170° South 427 491 30,500 -780 Descending Indianapolis Center
07:02PM 38.5931 -87.2133 171° South 427 491 29,500 -780 Descending Indianapolis Center
07:03PM 38.4728 -87.1886 169° South 427 491 29,000 -300 Descending Indianapolis Center
07:04PM 38.3322 -87.1525 171° South 441 507 29,000  Level Indianapolis Center
07:05PM 38.2181 -87.1283 171° South 467 537 29,000  Level Indianapolis Center
07:06PM 38.0936 -87.1039 170° South 467 537 29,000  Level Indianapolis Center
07:07PM 37.9444 -87.0703 171° South 467 537 29,000  Level Indianapolis Center
07:09PM 37.7161 -87.0228 170° South 462 532 29,000  Level Memphis Center
07:10PM 37.5947 -86.9964 169° South 455 524 29,000  Level Memphis Center
07:11PM 37.4750 -86.9678 165° South 440 506 29,000  Level Memphis Center
07:12PM 37.3594 -86.9283 163° South 435 501 29,000  Level Memphis Center
07:13PM 37.2417 -86.8839 166° South 435 501 29,000  Level Memphis Center
07:14PM 37.1217 -86.8450 164° South 440 506 29,000  Level Memphis Center
07:15PM 37.0144 -86.8056 165° South 445 512 29,000  Level Memphis Center
07:16PM 36.8922 -86.7642 163° South 445 512 29,000  Level Memphis Center
07:17PM 36.7744 -86.7203 164° South 445 512 29,000  Level Memphis Center
07:18PM 36.6583 -86.6789 165° South 436 502 29,000  Level Memphis Center
07:19PM 36.5447 -86.6403 163° South 428 493 29,000  Level Memphis Center
07:20PM 36.4203 -86.5942 165° South 423 487 29,000  Level Memphis Center
07:21PM 36.3025 -86.5561 164° South 423 487 29,000  Level Memphis Center
07:22PM 36.1867 -86.5150 165° South 428 493 29,000  Level Memphis Center
07:23PM 36.0686 -86.4769 165° South 433 498 29,000  Level Memphis Center
07:24PM 35.9528 -86.4389 164° South 433 498 29,000  Level Memphis Center
07:25PM 35.7733 -86.3756 152° Southeast 450 518 29,000  Level Atlanta Center
07:26PM 35.6642 -86.3033 148° Southeast 450 518 29,000  Level Atlanta Center
07:27PM 35.5653 -86.2267 146° Southeast 450 518 29,100  Climbing Atlanta Center
07:28PM 35.4644 -86.1425 146° Southeast 450 518 29,000 -60 Descending Atlanta Center
07:29PM 35.3597 -86.0556 148° Southeast 450 518 29,000 -120 Level Atlanta Center
07:30PM 35.2544 -85.9742 147° Southeast 450 518 28,800 -900 Descending Atlanta Center
07:31PM 35.1536 -85.8931 148° Southeast 443 510 27,200 -1,560 Descending Atlanta Center
07:32PM 35.0544 -85.8175 147° Southeast 438 504 25,700 -1,500 Descending Atlanta Center
07:33PM 34.9556 -85.7392 148° Southeast 428 493 24,200 -900 Descending Atlanta Center
07:34PM 34.8583 -85.6639 148° Southeast 428 493 24,000 -180 Descending Atlanta Center
07:35PM 34.7611 -85.5886 147° Southeast 423 487 23,900 -900 Descending Atlanta Center
07:36PM 34.6661 -85.5136 147° Southeast 418 481 22,300 -1,560 Descending Atlanta Center
07:37PM 34.5731 -85.4389 147° Southeast 412 474 20,800 -1,500 Descending Atlanta Center
07:38PM 34.4800 -85.3667 147° Southeast 406 467 19,300 -1,560 Descending Atlanta Center
07:39PM 34.3889 -85.2947 148° Southeast 406 467 17,700 -1,560 Descending Atlanta Center
07:40PM 34.2978 -85.2256 147° Southeast 396 456 16,200 -1,500 Descending Atlanta Center
07:41PM 34.2067 -85.1542 140° Southeast 396 456 14,700 -1,200 Descending Atlanta Center
07:42PM 34.1300 -85.0753 135° Southeast 374 430 13,900 -600 Descending Atlanta Center
07:43PM 34.0639 -84.9942 133° Southeast 336 387 13,600 -900 Descending Atlanta Center
07:44PM 34.0019 -84.9133 133° Southeast 315 362 12,200 -840 Descending Atlanta Center
07:45PM 33.9419 -84.8350 134° Southeast 315 362 12,000 -120 Descending Atlanta Center
07:46PM 33.8819 -84.7594 134° Southeast 315 362 12,000  Level Atlanta Center
07:47PM 33.8217 -84.6839 135° Southeast 315 362 12,000  Level Atlanta Center
07:48PM 33.7667 -84.6167 101° East 302 348 12,000 -600 Level Atlanta TRACON
07:49PM 33.7500 -84.5167 76° East 281 323 10,800 -1,800 Descending Atlanta TRACON
07:50PM 33.7667 -84.4333 76° East 256 295 8,300 -1,920 Descending Atlanta TRACON
07:51PM 33.7833 -84.3500 104° East 242 278 7,000 -660 Descending Atlanta TRACON
07:52PM 33.7667 -84.2667 104° East 251 289 7,000 -660 Level Atlanta TRACON
07:53PM 33.7500 -84.1833 107° East 246 283 5,700 -1,020 Descending Atlanta TRACON
07:54PM 33.7333 -84.1167 116° Southeast 239 275 5,000 -360 Descending Atlanta TRACON
07:56PM 33.7000 -84.0333 209° Southwest 250 288 5,000  Level Atlanta TRACON
07:57PM 33.6500 -84.0667 270° West 237 273 5,000  Level Atlanta TRACON
07:58PM 33.6500 -84.1333 270° West 224 258 5,000 -420 Level Atlanta TRACON
07:59PM 33.6500 -84.2167 270° West 224 258 4,200 -1,020 Descending Atlanta TRACON
08:00PM 33.6500 -84.3000 270° West 219 252 2,900 -1,200 Descending Atlanta TRACON